Time;durP1;ratioP1;P1;durP2;ratioP2;P2;SDS_P1;SDS_P2;PMS_P1;PMS_P2;Temp;Humidity;BMP_temperature;BMP_pressure;BME280_temperature;BME280_humidity;BME280_pressure;Samples;Min_cycle;Max_cycle;Signal;HPM_P1;HPM_P2
2021/04/23 00:01:04;;;;;;;14.23;4.70;;;;;;;4.75;64.76;101098.74;1704046;81;26016;-66
2021/04/23 00:03:40;;;;;;;12.03;4.33;;;;;;;4.72;64.77;101102.31;1761002;78;25848;-66
2021/04/23 00:06:25;;;;;;;18.52;5.85;;;;;;;4.73;65.14;101103.19;1760919;79;27706;-66
2021/04/23 00:09:03;;;;;;;23.22;5.17;;;;;;;4.73;65.14;101103.19;1758251;78;25867;-66
2021/04/23 00:11:40;;;;;;;12.37;5.40;;;;;;;4.69;65.18;101100.14;1765188;78;25950;-66
2021/04/23 00:14:12;;;;;;;23.50;5.90;;;;;;;4.66;65.33;101099.73;1771111;78;26320;-66
2021/04/23 00:16:41;;;;;;;20.97;5.25;;;;;;;4.64;65.26;101093.56;1753077;78;26222;-66
2021/04/23 00:19:13;;;;;;;20.32;7.30;;;;;;;4.60;65.48;101094.50;1786387;78;27410;-66
2021/04/23 00:21:43;;;;;;;13.65;5.47;;;;;;;4.56;65.40;101092.77;1764217;78;26346;-66
2021/04/23 00:24:12;;;;;;;15.10;5.78;;;;;;;4.53;65.56;101099.00;1765155;78;25805;-65
2021/04/23 00:26:40;;;;;;;17.07;5.62;;;;;;;4.50;65.64;101103.02;1760885;78;26273;-66
2021/04/23 00:29:09;;;;;;;14.13;5.95;;;;;;;4.48;65.65;101093.31;1789478;78;25790;-66
2021/04/23 00:31:40;;;;;;;20.23;5.22;;;;;;;4.44;65.61;101099.10;1786886;78;27763;-66
2021/04/23 00:34:09;;;;;;;17.30;6.20;;;;;;;4.42;65.69;101103.99;1752541;81;26532;-66
2021/04/23 00:36:38;;;;;;;8.98;4.10;;;;;;;4.37;65.67;101096.53;1796431;78;25865;-66
2021/04/23 00:39:05;;;;;;;16.73;5.92;;;;;;;4.35;65.73;101106.28;1763529;79;26011;-66
2021/04/23 00:41:35;;;;;;;15.40;5.17;;;;;;;4.30;65.80;101105.00;1802020;78;25799;-68
2021/04/23 00:44:04;;;;;;;22.22;5.08;;;;;;;4.30;66.10;101102.80;1760556;79;28477;-66
2021/04/23 00:46:37;;;;;;;21.20;5.37;;;;;;;4.26;66.14;101103.72;1814839;78;26369;-65
2021/04/23 00:49:07;;;;;;;20.82;5.03;;;;;;;4.21;66.16;101107.30;1742839;80;25898;-65
2021/04/23 00:51:46;;;;;;;24.70;6.47;;;;;;;4.19;66.42;101110.42;1762427;78;26329;-67
2021/04/23 00:54:14;;;;;;;16.85;5.20;;;;;;;4.16;66.46;101106.47;1783641;79;25906;-67
2021/04/23 00:56:42;;;;;;;17.62;5.30;;;;;;;4.12;66.47;101110.05;1798146;78;27716;-65
2021/04/23 00:59:13;;;;;;;14.45;7.20;;;;;;;4.09;66.62;101113.17;1792393;78;25983;-66
2021/04/23 01:02:02;;;;;;;19.12;6.87;;;;;;;4.01;66.50;101110.59;1765947;79;33116;-67
2021/04/23 01:04:31;;;;;;;17.32;6.22;;;;;;;3.95;66.59;101112.42;1743421;79;26262;-66
2021/04/23 01:07:00;;;;;;;13.30;6.37;;;;;;;3.88;66.88;101104.96;1720257;81;25969;-66
2021/04/23 01:09:30;;;;;;;14.00;5.53;;;;;;;3.81;67.05;101101.48;1748891;79;27762;-66
2021/04/23 01:12:01;;;;;;;14.13;6.25;;;;;;;3.78;67.00;101104.61;1744452;81;25935;-66
2021/04/23 01:14:29;;;;;;;13.88;5.45;;;;;;;3.77;67.13;101113.45;1754991;78;25858;-66
2021/04/23 01:16:57;;;;;;;17.57;6.10;;;;;;;3.75;67.52;101107.28;1766693;79;26160;-67
2021/04/23 01:19:27;;;;;;;12.98;5.17;;;;;;;3.73;67.66;101105.09;1768210;78;25835;-66
2021/04/23 01:21:56;;;;;;;20.08;7.20;;;;;;;3.73;68.03;101110.39;1764948;79;27840;-67
2021/04/23 01:24:25;;;;;;;14.30;6.50;;;;;;;3.67;67.92;101102.04;1789037;78;25822;-67
2021/04/23 01:26:56;;;;;;;16.37;6.75;;;;;;;3.65;68.02;101102.94;1751006;79;26045;-66
2021/04/23 01:29:27;;;;;;;21.48;6.55;;;;;;;3.63;68.47;101112.23;1790837;78;25844;-66
2021/04/23 01:31:58;;;;;;;11.10;5.42;;;;;;;3.61;68.44;101106.52;1786952;78;25778;-67
2021/04/23 01:34:34;;;;;;;16.17;5.80;;;;;;;3.57;68.85;101106.53;1785990;78;26023;-66
2021/04/23 01:37:05;;;;;;;11.50;5.60;;;;;;;3.55;68.80;101104.34;1760882;78;25814;-66
2021/04/23 01:39:37;;;;;;;26.77;6.42;;;;;;;3.52;68.94;101112.31;1769662;78;25872;-66
2021/04/23 01:42:10;;;;;;;16.90;5.03;;;;;;;3.47;69.32;101110.58;1762524;79;26182;-66
2021/04/23 01:44:39;;;;;;;17.90;6.78;;;;;;;3.44;69.54;101115.91;1754437;78;26544;-67
2021/04/23 01:47:10;;;;;;;17.12;6.30;;;;;;;3.40;69.71;101115.05;1794282;78;28092;-66
2021/04/23 01:49:40;;;;;;;15.03;6.90;;;;;;;3.36;69.72;101118.61;1765071;78;25848;-66
2021/04/23 01:52:17;;;;;;;18.37;6.40;;;;;;;3.32;69.67;101108.03;1764841;78;25807;-66
2021/04/23 01:54:49;;;;;;;26.10;7.53;;;;;;;3.31;69.75;101112.45;1765003;79;26032;-66
2021/04/23 01:57:21;;;;;;;15.98;5.97;;;;;;;3.28;69.65;101109.83;1752540;78;26470;-67
2021/04/23 01:59:50;;;;;;;27.37;5.58;;;;;;;3.24;69.60;101104.98;1727588;80;25886;-66
2021/04/23 02:02:18;;;;;;;24.10;7.10;;;;;;;3.23;70.13;101107.65;1762521;78;25818;-66
2021/04/23 02:04:47;;;;;;;21.75;7.33;;;;;;;3.18;70.16;101112.97;1759998;78;25810;-66
2021/04/23 02:07:18;;;;;;;14.73;5.67;;;;;;;3.16;70.15;101112.10;1769744;79;25856;-66
2021/04/23 02:09:48;;;;;;;23.70;6.35;;;;;;;3.14;70.23;101118.30;1776988;78;33666;-66
2021/04/23 02:12:17;;;;;;;16.62;6.03;;;;;;;3.10;70.35;101116.11;1781739;78;28269;-67
2021/04/23 02:14:45;;;;;;;18.73;5.92;;;;;;;3.07;70.44;101120.09;1766306;78;26495;-66
2021/04/23 02:17:12;;;;;;;14.60;5.83;;;;;;;3.04;70.75;101117.47;1781890;78;26202;-66
2021/04/23 02:19:41;;;;;;;19.15;5.70;;;;;;;3.02;71.06;101126.30;1739049;79;25821;-66
2021/04/23 02:22:09;;;;;;;18.02;6.20;;;;;;;3.00;71.49;101135.58;1751758;81;25946;-66
2021/04/23 02:24:39;;;;;;;21.45;5.15;;;;;;;2.96;71.40;101128.98;1805466;78;27309;-66
2021/04/23 02:27:08;;;;;;;12.75;5.50;;;;;;;2.91;71.48;101125.91;1765779;79;25789;-67
2021/04/23 02:29:36;;;;;;;13.58;6.17;;;;;;;2.87;71.42;101128.58;1770122;78;25883;-66
2021/04/23 02:32:05;;;;;;;19.00;5.65;;;;;;;2.85;71.42;101136.97;1783919;78;26055;-67
2021/04/23 02:34:34;;;;;;;19.55;5.72;;;;;;;2.84;71.60;101138.73;1755988;79;26342;-66
2021/04/23 02:37:01;;;;;;;18.10;5.95;;;;;;;2.81;71.72;101134.78;1767954;79;28433;-66
2021/04/23 02:39:31;;;;;;;15.65;5.67;;;;;;;2.81;72.03;101130.80;1733963;79;26055;-66
2021/04/23 02:41:59;;;;;;;17.07;5.22;;;;;;;2.80;72.24;101144.92;1737162;80;25862;-67
2021/04/23 02:44:28;;;;;;;13.60;5.50;;;;;;;2.81;72.69;101143.16;1740398;80;25908;-66
2021/04/23 02:46:58;;;;;;;18.77;5.90;;;;;;;2.78;72.57;101145.81;1745930;80;25869;-66
2021/04/23 02:49:26;;;;;;;15.32;5.35;;;;;;;2.76;72.96;101139.65;1736883;79;28353;-66
2021/04/23 02:51:54;;;;;;;19.00;6.40;;;;;;;2.74;72.87;101148.04;1771417;79;25940;-66
2021/04/23 02:54:22;;;;;;;20.08;6.67;;;;;;;2.73;72.93;101143.62;1736993;79;25825;-67
2021/04/23 02:56:50;;;;;;;17.40;7.22;;;;;;;2.72;72.87;101140.55;1746492;80;26590;-66
2021/04/23 02:59:20;;;;;;;29.65;8.15;;;;;;;2.71;73.07;101142.75;1758147;79;26138;-66
2021/04/23 03:01:53;;;;;;;28.30;8.08;;;;;;;2.71;73.31;101146.28;1766004;79;27868;-67
2021/04/23 03:04:22;;;;;;;20.88;5.67;;;;;;;2.74;74.20;101146.27;1741353;79;25941;-67
2021/04/23 03:06:53;;;;;;;23.62;7.50;;;;;;;2.75;74.21;101147.16;1739266;80;25891;-66
2021/04/23 03:09:22;;;;;;;35.43;6.50;;;;;;;2.76;74.23;101139.20;1746926;79;25998;-66
2021/04/23 03:11:51;;;;;;;16.05;5.85;;;;;;;2.73;74.07;101147.16;1730561;80;25833;-67
2021/04/23 03:14:22;;;;;;;14.85;5.83;;;;;;;2.73;74.15;101139.66;1767503;79;27412;-66
2021/04/23 03:16:49;;;;;;;27.70;5.95;;;;;;;2.73;74.34;101136.57;1747303;80;25966;-66
2021/04/23 03:19:23;;;;;;;16.82;5.67;;;;;;;2.72;74.35;101152.45;1730319;80;25918;-66
2021/04/23 03:21:54;;;;;;;26.62;6.95;;;;;;;2.71;74.35;101145.41;1745169;80;26087;-66
2021/04/23 03:24:22;;;;;;;20.30;6.75;;;;;;;2.73;74.63;101151.57;1763201;79;26354;-66
2021/04/23 03:26:52;;;;;;;14.85;5.58;;;;;;;2.73;74.52;101153.78;1750378;79;27800;-66
2021/04/23 03:29:20;;;;;;;26.70;7.60;;;;;;;2.74;74.89;101153.33;1768996;79;25907;-66
2021/04/23 03:31:50;;;;;;;17.60;6.37;;;;;;;2.72;74.82;101148.05;1718593;81;25830;-66
2021/04/23 03:34:20;;;;;;;19.67;6.83;;;;;;;2.72;75.17;101154.66;1766511;79;25755;-66
2021/04/23 03:36:48;;;;;;;25.40;6.75;;;;;;;2.70;75.19;101149.81;1770092;78;26337;-67
2021/04/23 03:39:16;;;;;;;23.22;6.70;;;;;;;2.70;75.01;101152.46;1762979;79;27715;-66
2021/04/23 03:41:46;;;;;;;25.02;7.00;;;;;;;2.70;74.89;101157.75;1766534;78;26434;-66
2021/04/23 03:44:17;;;;;;;19.17;6.10;;;;;;;2.69;74.86;101157.76;1750961;81;26699;-66
2021/04/23 03:46:45;;;;;;;23.45;6.67;;;;;;;2.65;74.84;101158.66;1736736;81;26287;-66
2021/04/23 03:49:14;;;;;;;14.73;5.85;;;;;;;2.66;74.91;101165.71;1768309;78;25964;-66
2021/04/23 03:51:42;;;;;;;20.45;5.08;;;;;;;2.65;75.09;101156.89;1804820;78;26677;-66
2021/04/23 03:54:10;;;;;;;21.02;6.03;;;;;;;2.66;75.45;101159.97;1782491;78;25883;-66
2021/04/23 03:56:39;;;;;;;23.35;6.12;;;;;;;2.66;75.34;101159.09;1776056;78;26224;-66
2021/04/23 03:59:07;;;;;;;24.55;6.50;;;;;;;2.57;75.22;101151.65;1762403;79;26195;-66
2021/04/23 04:01:35;;;;;;;21.75;6.17;;;;;;;2.64;75.22;101176.30;1784211;78;25829;-67
2021/04/23 04:04:06;;;;;;;21.07;6.22;;;;;;;2.64;75.38;101170.13;1771442;79;27828;-66
2021/04/23 04:06:33;;;;;;;18.62;5.45;;;;;;;2.62;75.44;101166.16;1789246;78;26380;-66
2021/04/23 04:09:06;;;;;;;20.35;5.58;;;;;;;2.61;75.32;101168.37;1792871;78;25749;-66
2021/04/23 04:11:37;;;;;;;19.65;7.30;;;;;;;2.62;75.28;101175.42;1770461;78;26608;-66
2021/04/23 04:14:06;;;;;;;19.82;7.72;;;;;;;2.59;75.24;101181.63;1798302;78;25948;-66
2021/04/23 04:16:35;;;;;;;23.15;6.92;;;;;;;2.59;75.22;101179.44;1801393;78;27775;-66
2021/04/23 04:19:05;;;;;;;21.55;6.42;;;;;;;2.61;75.34;101182.92;1760780;79;26135;-66
2021/04/23 04:21:34;;;;;;;24.63;7.42;;;;;;;2.60;75.70;101186.01;1750131;79;25855;-66
2021/04/23 04:24:04;;;;;;;20.52;6.25;;;;;;;2.61;75.75;101185.57;1758849;79;26415;-66
2021/04/23 04:26:32;;;;;;;25.70;6.15;;;;;;;2.60;75.78;101179.39;1769896;78;25803;-67
2021/04/23 04:28:59;;;;;;;17.67;5.80;;;;;;;2.64;75.98;101185.56;1801775;78;27817;-67
2021/04/23 04:31:30;;;;;;;22.15;6.47;;;;;;;2.65;76.05;101194.38;1783912;78;25880;-66
2021/04/23 04:34:01;;;;;;;12.98;6.22;;;;;;;2.67;76.12;101192.17;1753050;79;26522;-66
2021/04/23 04:36:28;;;;;;;29.10;6.85;;;;;;;2.69;76.26;101191.72;1737677;80;26476;-66
2021/04/23 04:38:56;;;;;;;24.77;7.22;;;;;;;2.72;76.15;101191.72;1756425;80;25903;-67
2021/04/23 04:41:26;;;;;;;28.75;7.12;;;;;;;2.76;76.56;101192.15;1726420;81;27787;-67
2021/04/23 04:43:57;;;;;;;22.45;6.45;;;;;;;2.81;76.57;101194.78;1728643;81;25891;-66
2021/04/23 04:46:28;;;;;;;17.35;5.65;;;;;;;2.83;76.53;101199.63;1714032;81;25864;-66
2021/04/23 04:48:57;;;;;;;19.23;6.00;;;;;;;2.85;76.72;101197.41;1725297;81;26082;-66
2021/04/23 04:51:27;;;;;;;24.18;6.83;;;;;;;2.89;76.51;101200.94;1710464;81;26493;-66
2021/04/23 04:53:57;;;;;;;17.00;6.00;;;;;;;2.91;76.62;101205.34;1726800;81;27729;-66
2021/04/23 04:56:24;;;;;;;20.82;6.62;;;;;;;2.96;77.19;101213.71;1755336;80;26478;-65
2021/04/23 04:58:52;;;;;;;31.87;6.92;;;;;;;2.97;76.82;101204.44;1746061;80;25859;-66
2021/04/23 05:01:20;;;;;;;21.97;7.22;;;;;;;3.01;76.78;101218.11;1746988;80;26765;-66
2021/04/23 05:03:49;;;;;;;30.17;7.22;;;;;;;3.05;76.78;101207.94;1749863;80;25905;-66
2021/04/23 05:06:18;;;;;;;29.50;7.58;;;;;;;3.09;76.70;101219.41;1737768;80;26346;-66
2021/04/23 05:08:46;;;;;;;29.02;7.25;;;;;;;3.12;76.82;101218.06;1724178;81;25803;-66
2021/04/23 05:11:16;;;;;;;16.60;6.50;;;;;;;3.16;76.79;101217.17;1718967;81;25844;-66
2021/04/23 05:13:45;;;;;;;28.62;8.00;;;;;;;3.22;76.93;101217.14;1680338;81;26511;-67
2021/04/23 05:16:13;;;;;;;30.48;7.47;;;;;;;3.26;76.95;101214.92;1707805;81;26451;-65
2021/04/23 05:18:40;;;;;;;25.90;7.37;;;;;;;3.31;76.76;101214.90;1735853;81;27757;-65
2021/04/23 05:21:10;;;;;;;32.05;7.42;;;;;;;3.33;76.68;101218.42;1715936;82;25785;-68
2021/04/23 05:23:39;;;;;;;34.48;7.75;;;;;;;3.39;76.81;101220.59;1715291;81;25643;-65
2021/04/23 05:26:07;;;;;;;13.95;6.47;;;;;;;3.44;76.75;101218.81;1718236;81;25906;-66
2021/04/23 05:28:37;;;;;;;27.60;7.15;;;;;;;3.48;76.85;101220.55;1703916;81;25948;-65
2021/04/23 05:31:06;;;;;;;26.42;7.17;;;;;;;3.50;76.73;101228.05;1715293;81;28087;-65
2021/04/23 05:33:37;;;;;;;25.12;7.25;;;;;;;3.55;76.85;101230.67;1740474;79;25897;-65
2021/04/23 05:36:05;;;;;;;21.45;6.65;;;;;;;3.59;77.02;101231.98;1748384;80;26403;-65
2021/04/23 05:38:33;;;;;;;30.62;7.65;;;;;;;3.66;77.13;101238.13;1744432;79;26777;-65
2021/04/23 05:41:01;;;;;;;27.93;7.30;;;;;;;3.69;77.03;101226.63;1764297;79;25757;-66
2021/04/23 05:43:28;;;;;;;24.18;7.47;;;;;;;3.71;76.95;101233.68;1774285;79;27745;-65
2021/04/23 05:45:56;;;;;;;28.42;7.60;;;;;;;3.75;77.22;101229.23;1769758;79;25921;-65
2021/04/23 05:48:24;;;;;;;28.50;6.95;;;;;;;3.78;77.08;101232.75;1744715;79;25948;-65
2021/04/23 05:50:53;;;;;;;22.98;8.13;;;;;;;3.86;77.05;101245.52;1752375;79;25919;-66
2021/04/23 05:53:23;;;;;;;30.62;7.37;;;;;;;3.91;76.93;101221.62;1762420;79;25847;-65
2021/04/23 05:55:50;;;;;;;21.02;7.92;;;;;;;3.97;76.83;101233.52;1728671;81;27825;-65
2021/04/23 05:58:20;;;;;;;26.05;7.40;;;;;;;4.06;76.79;101237.42;1764332;79;25989;-65
2021/04/23 06:00:48;;;;;;;26.95;7.10;;;;;;;4.16;76.71;101255.48;1765762;79;25914;-66
2021/04/23 06:03:17;;;;;;;18.52;7.33;;;;;;;4.22;76.69;101236.87;1765561;78;25984;-65
2021/04/23 06:05:45;;;;;;;28.50;8.10;;;;;;;4.33;76.71;101242.97;1774085;78;25875;-66
2021/04/23 06:08:15;;;;;;;21.68;8.33;;;;;;;4.41;76.66;101237.14;1809772;78;28571;-65
2021/04/23 06:10:46;;;;;;;30.17;7.50;;;;;;;4.47;76.61;101238.86;1764368;78;25886;-65
2021/04/23 06:13:15;;;;;;;28.07;7.87;;;;;;;4.59;76.54;101235.22;1760069;78;26576;-65
2021/04/23 06:15:46;;;;;;;23.90;7.08;;;;;;;4.73;76.48;101248.80;1788803;78;26308;-65
2021/04/23 06:18:16;;;;;;;25.35;7.15;;;;;;;4.83;76.36;101241.17;1790381;78;25925;-69
2021/04/23 06:20:46;;;;;;;25.20;7.42;;;;;;;4.95;76.26;101249.45;1790366;78;27819;-66
2021/04/23 06:23:16;;;;;;;35.68;8.78;;;;;;;5.03;76.06;101238.30;1796410;78;25826;-66
2021/04/23 06:25:45;;;;;;;27.73;7.72;;;;;;;5.17;76.01;101243.00;1771642;78;25784;-65
2021/04/23 06:28:12;;;;;;;33.63;8.68;;;;;;;5.32;75.80;101258.31;1780690;79;25904;-66
2021/04/23 06:30:41;;;;;;;34.70;8.98;;;;;;;5.36;75.44;101250.28;1786868;78;25830;-67
2021/04/23 06:33:23;;;;;;;21.75;7.05;;;;;;;5.43;75.29;101249.30;1773609;78;27778;-65
2021/04/23 06:35:48;;;;;;;19.75;6.95;;;;;;;5.51;75.13;101242.11;1770335;78;26254;-65
2021/04/23 06:38:18;;;;;;;26.00;7.35;;;;;;;5.62;74.93;101245.08;1775762;78;25833;-66
2021/04/23 06:40:47;;;;;;;28.62;7.42;;;;;;;5.67;74.78;101248.55;1782555;78;25830;-66
2021/04/23 06:43:16;;;;;;;19.73;6.87;;;;;;;5.66;74.54;101241.02;1770976;79;26510;-67
2021/04/23 06:45:46;;;;;;;32.78;8.45;;;;;;;5.62;74.30;101242.42;1786731;78;27770;-68
2021/04/23 06:48:14;;;;;;;25.25;6.85;;;;;;;5.55;74.09;101258.45;1799050;78;25852;-68
2021/04/23 06:50:43;;;;;;;31.20;8.63;;;;;;;5.54;74.09;101250.05;1804722;78;25898;-67
2021/04/23 06:53:17;;;;;;;31.33;8.75;;;;;;;5.61;74.04;101241.98;1729170;79;26318;-66
2021/04/23 06:55:47;;;;;;;34.13;9.38;;;;;;;5.65;73.97;101247.24;1760315;78;25914;-66
2021/04/23 06:58:15;;;;;;;21.57;8.15;;;;;;;5.71;73.89;101240.52;1785893;78;25934;-68
2021/04/23 07:00:43;;;;;;;34.20;9.05;;;;;;;5.83;73.78;101244.78;1786144;78;25790;-70
2021/04/23 07:03:12;;;;;;;34.15;7.90;;;;;;;5.97;73.56;101253.92;1709090;81;25844;-68
2021/04/23 07:05:44;;;;;;;28.38;7.30;;;;;;;6.11;73.47;101272.77;1787809;78;25792;-68
2021/04/23 07:08:12;;;;;;;27.13;7.00;;;;;;;6.14;72.80;101276.72;1761992;78;25790;-68
2021/04/23 07:10:42;;;;;;;19.20;7.12;;;;;;;6.13;72.54;101285.61;1796977;78;25965;-67
2021/04/23 07:13:11;;;;;;;31.10;7.87;;;;;;;6.15;72.49;101289.12;1747299;79;25831;-68
2021/04/23 07:15:39;;;;;;;30.55;7.45;;;;;;;6.16;72.13;101280.69;1795447;78;25815;-67
2021/04/23 07:18:08;;;;;;;29.18;8.05;;;;;;;6.12;71.93;101281.19;1779224;79;25813;-67
2021/04/23 07:20:38;;;;;;;23.73;6.22;;;;;;;6.14;71.86;101275.39;1764337;78;25792;-69
2021/04/23 07:23:07;;;;;;;31.17;8.95;;;;;;;6.24;71.92;101285.90;1771394;79;27451;-66
2021/04/23 07:25:37;;;;;;;33.50;9.65;;;;;;;6.28;71.67;101278.30;1762861;78;25831;-67
2021/04/23 07:28:05;;;;;;;30.25;7.75;;;;;;;6.30;71.71;101281.81;1804130;78;25837;-67
2021/04/23 07:30:36;;;;;;;26.68;7.53;;;;;;;6.36;71.57;101292.36;1797056;78;26667;-67
2021/04/23 07:33:08;;;;;;;15.60;5.90;;;;;;;6.41;71.42;101284.73;1772184;78;25676;-66
2021/04/23 07:35:39;;;;;;;22.32;6.83;;;;;;;6.50;70.80;101293.02;1737103;79;25796;-66
2021/04/23 07:38:07;;;;;;;22.67;6.72;;;;;;;6.43;70.69;101285.59;1735561;81;25940;-67
2021/04/23 07:40:35;;;;;;;28.05;6.50;;;;;;;6.45;70.61;101293.55;1755079;80;25867;-66
2021/04/23 07:43:06;;;;;;;45.90;11.45;;;;;;;6.50;70.47;101289.91;1732483;80;26314;-67
2021/04/23 07:45:36;;;;;;;29.12;8.83;;;;;;;6.50;70.31;101298.35;1760408;80;30962;-67
2021/04/23 07:48:06;;;;;;;23.07;7.20;;;;;;;6.63;70.31;101289.25;1732974;80;27953;-69
2021/04/23 07:50:34;;;;;;;21.80;6.97;;;;;;;6.68;69.64;101302.05;1761535;80;25831;-68
2021/04/23 07:53:03;;;;;;;21.57;7.78;;;;;;;6.67;69.58;101301.62;1757217;80;25791;-68
2021/04/23 07:55:31;;;;;;;22.80;7.17;;;;;;;6.74;69.53;101297.94;1706703;82;26151;-67
2021/04/23 07:57:59;;;;;;;32.48;7.55;;;;;;;6.84;68.87;101298.20;1733933;81;25817;-68
2021/04/23 08:00:27;;;;;;;17.95;6.42;;;;;;;6.91;68.69;101303.43;1763042;79;28447;-68
2021/04/23 08:02:56;;;;;;;23.05;7.97;;;;;;;6.96;68.30;101303.77;1763659;79;25800;-68
2021/04/23 08:05:24;;;;;;;23.85;7.20;;;;;;;6.95;67.85;101308.68;1739226;79;25850;-68
2021/04/23 08:07:52;;;;;;;25.45;7.25;;;;;;;6.96;67.46;101318.88;1736555;80;26255;-68
2021/04/23 08:10:21;;;;;;;20.95;7.17;;;;;;;6.87;67.28;101308.39;1753656;80;25954;-67
2021/04/23 08:12:54;;;;;;;23.12;7.35;;;;;;;6.86;66.86;101335.48;1733634;81;25903;-68
2021/04/23 08:15:24;;;;;;;29.52;8.03;;;;;;;6.83;66.95;101312.89;1735471;80;26116;-68
2021/04/23 08:17:54;;;;;;;20.85;6.55;;;;;;;6.94;66.68;101315.37;1725362;81;25861;-68
2021/04/23 08:20:22;;;;;;;19.05;5.78;;;;;;;6.86;66.58;101319.50;1734961;80;26041;-68
2021/04/23 08:22:50;;;;;;;27.82;6.45;;;;;;;7.04;66.24;101328.95;1756215;80;26617;-68
2021/04/23 08:25:20;;;;;;;20.52;7.87;;;;;;;7.07;65.88;101325.78;1730152;81;28480;-67
2021/04/23 08:27:50;;;;;;;21.95;6.80;;;;;;;7.11;65.99;101326.16;1760705;80;25754;-67
2021/04/23 08:30:24;;;;;;;27.40;8.10;;;;;;;7.11;65.55;101320.82;1734530;81;25812;-69
2021/04/23 08:32:54;;;;;;;20.02;7.42;;;;;;;7.11;65.87;101338.60;1717832;81;25991;-68
2021/04/23 08:35:22;;;;;;;17.42;6.53;;;;;;;7.16;65.68;101348.73;1746690;79;26396;-69
2021/04/23 08:37:50;;;;;;;25.90;7.35;;;;;;;7.08;64.92;101331.54;1736459;81;27854;-69
2021/04/23 08:40:23;;;;;;;21.93;6.70;;;;;;;7.10;65.12;101335.06;1800914;78;25879;-68
2021/04/23 08:42:51;;;;;;;24.43;6.58;;;;;;;7.08;64.89;101329.33;1760179;78;25865;-66
2021/04/23 08:45:21;;;;;;;26.00;7.20;;;;;;;7.12;64.73;101331.03;1759130;79;26467;-67
2021/04/23 08:47:52;;;;;;;19.52;7.45;;;;;;;7.23;64.99;101322.83;1762741;78;26047;-68
2021/04/23 08:50:25;;;;;;;21.33;7.90;;;;;;;7.32;64.87;101319.54;1774713;79;27591;-66
2021/04/23 08:52:54;;;;;;;24.55;7.47;;;;;;;7.34;64.68;101327.05;1788364;78;25837;-66
2021/04/23 08:55:26;;;;;;;29.60;6.90;;;;;;;7.38;64.48;101329.21;1769200;79;25896;-66
2021/04/23 08:57:55;;;;;;;24.70;6.70;;;;;;;7.40;64.27;101344.73;1765356;79;26060;-66
2021/04/23 09:00:24;;;;;;;21.70;7.12;;;;;;;7.32;64.27;101326.66;1773242;78;25759;-66
2021/04/23 09:02:51;;;;;;;25.70;7.72;;;;;;;7.31;64.30;101329.78;1792766;79;25693;-66
2021/04/23 09:05:19;;;;;;;23.98;6.03;;;;;;;7.49;64.39;101324.09;1759856;79;25795;-66
2021/04/23 09:08:09;;;;;;;27.05;7.08;;;;;;;7.50;63.93;101322.30;1803417;78;25798;-66
2021/04/23 09:10:39;;;;;;;14.87;5.83;;;;;;;7.61;64.12;101326.97;1767844;78;26227;-66
2021/04/23 09:13:11;;;;;;;16.87;6.25;;;;;;;7.70;63.79;101329.45;1769610;79;26591;-66
2021/04/23 09:15:44;;;;;;;21.05;6.10;;;;;;;7.71;63.00;101350.34;1768552;78;27960;-66
2021/04/23 09:18:21;;;;;;;21.55;5.47;;;;;;;7.65;62.88;101338.45;1772084;79;25810;-66
2021/04/23 09:21:02;;;;;;;26.17;7.55;;;;;;;7.71;62.32;101353.01;1773042;78;26188;-66
2021/04/23 09:23:32;;;;;;;13.25;6.28;;;;;;;7.71;61.86;101345.88;1767622;78;25921;-66
2021/04/23 09:26:00;;;;;;;16.93;6.20;;;;;;;7.73;61.92;101336.06;1799529;78;25955;-66
2021/04/23 09:28:42;;;;;;;15.88;5.20;;;;;;;7.71;62.05;101325.88;1795725;78;27735;-66
2021/04/23 09:31:33;;;;;;;16.00;5.20;;;;;;;7.68;61.71;101339.73;1800460;78;25910;-66
2021/04/23 09:34:05;;;;;;;19.92;6.17;;;;;;;7.69;61.63;101325.48;1785623;78;26452;-65
2021/04/23 09:36:47;;;;;;;20.52;6.42;;;;;;;7.73;61.21;101341.84;1771155;78;26122;-66
2021/04/23 09:39:26;;;;;;;23.90;6.72;;;;;;;7.66;61.24;101335.76;1740949;79;25895;-67
2021/04/23 09:42:02;;;;;;;21.25;7.05;;;;;;;7.52;60.95;101327.16;1762463;79;27813;-68
2021/04/23 09:44:42;;;;;;;33.38;10.08;;;;;;;7.58;61.42;101339.48;1772547;78;26628;-68
2021/04/23 09:47:23;;;;;;;29.27;5.85;;;;;;;7.72;61.83;101326.75;1801370;78;25833;-68
2021/04/23 09:49:56;;;;;;;19.98;6.00;;;;;;;7.85;61.07;101338.02;1753454;81;26916;-68
2021/04/23 09:52:27;;;;;;;26.00;7.78;;;;;;;7.79;61.18;101331.92;1798252;78;25881;-68
2021/04/23 09:55:03;;;;;;;20.10;7.67;;;;;;;7.89;61.27;101315.69;1796950;78;26148;-68
2021/04/23 09:57:36;;;;;;;25.60;7.37;;;;;;;8.04;61.32;101334.91;1760605;78;25838;-68
2021/04/23 10:00:11;;;;;;;24.27;7.47;;;;;;;8.05;60.98;101318.44;1774960;79;25804;-68
2021/04/23 10:02:40;;;;;;;26.60;7.33;;;;;;;7.96;60.57;101318.19;1778264;78;25727;-68
2021/04/23 10:05:10;;;;;;;25.05;6.70;;;;;;;7.87;61.00;101321.05;1770471;79;26009;-69
2021/04/23 10:07:38;;;;;;;22.20;7.67;;;;;;;7.86;61.00;101330.43;1784853;78;28712;-69
2021/04/23 10:10:13;;;;;;;19.60;5.97;;;;;;;7.82;60.75;101322.94;1777078;78;25741;-69
2021/04/23 10:12:52;;;;;;;31.17;6.80;;;;;;;7.80;61.07;101330.13;1761555;79;26400;-68
2021/04/23 10:15:27;;;;;;;24.10;6.90;;;;;;;7.92;61.18;101327.63;1753820;80;25964;-70
2021/04/23 10:18:06;;;;;;;25.92;6.03;;;;;;;8.01;60.74;101334.11;1770316;78;25814;-71
2021/04/23 10:20:39;;;;;;;17.35;5.87;;;;;;;8.04;60.77;101318.90;1781430;78;27600;-68
2021/04/23 10:23:13;;;;;;;27.10;6.75;;;;;;;8.14;60.22;101328.92;1787941;78;25794;-69
2021/04/23 10:25:42;;;;;;;25.50;6.33;;;;;;;8.20;59.75;101307.87;1766176;78;25817;-69
2021/04/23 10:28:14;;;;;;;21.45;6.85;;;;;;;8.29;59.21;101302.31;1770609;79;25898;-70
2021/04/23 10:30:45;;;;;;;20.23;6.60;;;;;;;8.41;59.80;101299.39;1769773;78;26467;-68
2021/04/23 10:33:18;;;;;;;26.40;5.37;;;;;;;8.58;59.55;101288.30;1788044;78;25812;-70
2021/04/23 10:35:51;;;;;;;14.53;5.10;;;;;;;8.70;58.87;101295.55;1802383;78;25902;-69
2021/04/23 10:38:39;;;;;;;14.63;5.45;;;;;;;8.77;57.78;101294.47;1758241;78;25989;-69
2021/04/23 10:41:10;;;;;;;30.68;7.22;;;;;;;8.88;58.27;101286.17;1770167;79;25886;-69
2021/04/23 10:43:54;;;;;;;24.40;7.47;;;;;;;9.10;57.79;101299.40;1795316;78;25674;-69
2021/04/23 10:46:24;;;;;;;13.62;5.30;;;;;;;9.18;57.42;101291.16;1746712;79;25994;-69
2021/04/23 10:49:03;;;;;;;17.57;5.35;;;;;;;9.14;56.96;101297.98;1769184;78;25808;-71
2021/04/23 10:51:30;;;;;;;29.27;6.65;;;;;;;9.16;56.73;101314.40;1775654;78;25965;-69
2021/04/23 10:54:18;;;;;;;39.65;8.08;;;;;;;9.14;56.54;101288.16;1788084;78;25987;-69
2021/04/23 10:56:52;;;;;;;28.07;7.05;;;;;;;9.25;56.57;101281.17;1766033;78;26173;-69
2021/04/23 10:59:35;;;;;;;26.90;7.33;;;;;;;9.50;56.06;101282.70;1791889;78;26115;-67
2021/04/23 11:02:20;;;;;;;27.17;6.60;;;;;;;9.67;56.16;101260.34;1757437;79;26312;-68
2021/04/23 11:05:00;;;;;;;32.17;5.60;;;;;;;9.83;55.87;101264.31;1764744;78;26293;-68
2021/04/23 11:07:29;;;;;;;17.87;5.40;;;;;;;9.92;55.22;101260.02;1776617;78;25789;-69
2021/04/23 11:10:04;;;;;;;19.67;4.60;;;;;;;9.87;53.81;101246.34;1804557;78;26265;-68
2021/04/23 11:12:32;;;;;;;16.55;4.87;;;;;;;9.82;54.17;101252.30;1778892;78;27828;-68
2021/04/23 11:15:17;;;;;;;23.47;5.58;;;;;;;9.83;52.82;101261.63;1764302;79;25781;-68
2021/04/23 11:17:46;;;;;;;20.85;4.45;;;;;;;9.86;53.34;101267.35;1784107;78;25798;-67
2021/04/23 11:20:32;;;;;;;11.25;3.92;;;;;;;9.79;51.66;101267.13;1809143;78;25875;-69
2021/04/23 11:23:03;;;;;;;34.33;4.95;;;;;;;9.72;50.30;101274.00;1745540;79;26657;-67
2021/04/23 11:25:31;;;;;;;18.45;4.33;;;;;;;9.91;50.11;101281.02;1752988;79;25934;-67
2021/04/23 11:28:06;;;;;;;19.82;4.12;;;;;;;10.07;50.07;101251.96;1803074;78;26327;-71
2021/04/23 11:30:56;;;;;;;17.67;4.40;;;;;;;10.41;48.70;101248.61;1764155;79;26502;-67
2021/04/23 11:33:51;;;;;;;10.35;4.05;;;;;;;10.46;48.41;101252.48;1779022;79;26864;-67
2021/04/23 11:36:27;;;;;;;27.65;6.55;;;;;;;10.48;48.73;101255.98;1800483;78;25769;-69
2021/04/23 11:39:00;;;;;;;12.30;4.40;;;;;;;10.76;48.99;101256.39;1770051;79;25857;-68
2021/04/23 11:41:28;;;;;;;30.32;5.72;;;;;;;10.83;48.03;101236.48;1770357;78;26275;-68